Time;durP1;ratioP1;P1;durP2;ratioP2;P2;SDS_P1;SDS_P2;PMS_P1;PMS_P2;Temp;Humidity;BMP_temperature;BMP_pressure;BME280_temperature;BME280_humidity;BME280_pressure;Samples;Min_cycle;Max_cycle;Signal;HPM_P1;HPM_P2
2022/01/20 00:02:23;;;;;;;;;;;1.90;99.90;;;;;;5035203;28;20012;-70
2022/01/20 00:05:03;;;;;;;;;;;2.00;99.90;;;;;;5034675;28;19913;-69
2022/01/20 00:07:44;;;;;;;;;;;2.00;99.90;;;;;;5034764;28;19913;-70
2022/01/20 00:26:24;;;;;;;;;;;1.80;99.90;;;;;;5034230;28;19996;-70
2022/01/20 00:28:53;;;;;;;;;;;1.90;99.90;;;;;;5034242;28;19917;-70
2022/01/20 00:34:30;;;;;;;;;;;1.80;99.90;;;;;;5034333;28;19943;-70
2022/01/20 00:39:28;;;;;;;;;;;1.80;99.90;;;;;;5034237;28;19932;-69
2022/01/20 00:41:54;;;;;;;;;;;1.80;99.90;;;;;;5033481;28;19941;-70
2022/01/20 00:44:20;;;;;;;;;;;1.90;99.90;;;;;;5032542;28;19940;-69
2022/01/20 00:46:46;;;;;;;;;;;1.90;99.90;;;;;;5034042;28;20352;-69
2022/01/20 00:49:12;;;;;;;;;;;2.00;99.90;;;;;;5034687;28;19913;-70
2022/01/20 00:51:37;;;;;;;;;;;2.00;99.90;;;;;;5032886;28;19913;-70
2022/01/20 00:54:03;;;;;;;;;;;1.90;99.90;;;;;;5032828;28;19959;-72
2022/01/20 00:56:29;;;;;;;;;;;1.90;99.90;;;;;;5033747;28;20453;-70
2022/01/20 00:58:54;;;;;;;;;;;1.80;99.90;;;;;;5033990;28;20376;-70
2022/01/20 01:01:20;;;;;;;;;;;1.90;99.90;;;;;;5034171;28;19924;-70
2022/01/20 01:03:45;;;;;;;;;;;1.80;99.90;;;;;;5034033;28;20003;-70
2022/01/20 01:06:26;;;;;;;;;;;1.80;99.90;;;;;;5033886;28;20246;-70
2022/01/20 01:08:52;;;;;;;;;;;1.80;99.90;;;;;;5031742;28;19913;-69
2022/01/20 01:11:19;;;;;;;;;;;1.80;99.90;;;;;;5032713;28;20384;-70
2022/01/20 01:13:45;;;;;;;;;;;1.90;99.90;;;;;;5033609;28;20000;-70
2022/01/20 01:16:12;;;;;;;;;;;1.90;99.90;;;;;;5032415;28;20030;-70
2022/01/20 01:23:54;;;;;;;;;;;1.90;99.90;;;;;;5033447;28;19913;-69
2022/01/20 01:26:22;;;;;;;;;;;1.80;99.90;;;;;;5033847;28;19920;-70
2022/01/20 01:28:49;;;;;;;;;;;1.90;99.90;;;;;;5033498;28;20357;-70
2022/01/20 01:33:57;;;;;;;;;;;2.00;99.90;;;;;;5033777;28;19924;-69
2022/01/20 01:36:24;;;;;;;;;;;1.90;99.90;;;;;;5033498;28;19921;-70
2022/01/20 01:38:50;;;;;;;;;;;1.90;99.90;;;;;;5033378;28;20376;-70
2022/01/20 01:41:19;;;;;;;;;;;1.90;99.90;;;;;;5033156;28;19913;-69
2022/01/20 01:43:48;;;;;;;;;;;1.80;99.90;;;;;;5033445;28;19917;-69
2022/01/20 01:46:15;;;;;;;;;;;1.90;99.90;;;;;;5032299;28;19940;-70
2022/01/20 01:48:43;;;;;;;;;;;1.90;99.90;;;;;;5031934;28;19920;-71
2022/01/20 01:51:10;;;;;;;;;;;1.80;99.90;;;;;;5033284;28;19921;-72
2022/01/20 01:53:36;;;;;;;;;;;1.70;99.90;;;;;;5032096;28;19920;-70
2022/01/20 01:56:02;;;;;;;;;;;1.70;99.90;;;;;;5032320;28;19968;-70
2022/01/20 01:58:28;;;;;;;;;;;1.80;99.90;;;;;;5033315;28;19917;-70
2022/01/20 02:00:55;;;;;;;;;;;1.70;99.90;;;;;;5033428;28;20296;-70
2022/01/20 02:03:20;;;;;;;;;;;1.70;99.90;;;;;;5033402;28;19913;-69
2022/01/20 02:08:37;;;;;;;;;;;1.80;99.90;;;;;;5033196;28;20323;-69
2022/01/20 02:19:16;;;;;;;;;;;1.80;99.90;;;;;;5033832;28;19975;-70
2022/01/20 02:21:53;;;;;;;;;;;1.90;99.90;;;;;;5037159;28;19920;-70
2022/01/20 02:24:19;;;;;;;;;;;1.90;99.90;;;;;;5036961;28;19917;-69
2022/01/20 02:26:45;;;;;;;;;;;1.80;99.90;;;;;;5032601;28;19924;-70
2022/01/20 02:29:11;;;;;;;;;;;1.90;99.90;;;;;;5033916;28;20360;-70
2022/01/20 02:31:37;;;;;;;;;;;1.90;99.90;;;;;;5034568;28;20426;-70
2022/01/20 02:34:03;;;;;;;;;;;1.90;99.90;;;;;;5036849;28;19913;-70
2022/01/20 02:36:30;;;;;;;;;;;2.00;99.90;;;;;;5035178;28;20284;-70
2022/01/20 02:39:02;;;;;;;;;;;1.90;99.90;;;;;;5036514;28;19964;-70
2022/01/20 02:46:56;;;;;;;;;;;1.90;99.90;;;;;;5036156;28;20296;-70
2022/01/20 02:49:22;;;;;;;;;;;2.00;99.90;;;;;;5036381;28;19913;-70
2022/01/20 02:51:58;;;;;;;;;;;2.00;99.90;;;;;;5036443;28;19920;-70
2022/01/20 02:54:23;;;;;;;;;;;2.10;99.90;;;;;;5036255;28;19913;-69
2022/01/20 02:56:49;;;;;;;;;;;2.10;99.90;;;;;;5036486;28;19913;-70
2022/01/20 02:59:15;;;;;;;;;;;2.10;99.90;;;;;;5036266;28;20391;-70
2022/01/20 03:01:40;;;;;;;;;;;2.00;99.90;;;;;;5036506;28;19924;-70
2022/01/20 03:04:06;;;;;;;;;;;2.00;99.90;;;;;;5036138;28;19913;-72
2022/01/20 03:06:32;;;;;;;;;;;2.00;99.90;;;;;;5036226;28;20364;-70
2022/01/20 03:08:58;;;;;;;;;;;2.00;99.90;;;;;;5035318;28;19913;-69
2022/01/20 03:11:25;;;;;;;;;;;2.00;99.90;;;;;;5035545;28;20218;-70
2022/01/20 03:13:51;;;;;;;;;;;2.00;99.90;;;;;;5035738;28;20350;-70
2022/01/20 03:16:17;;;;;;;;;;;2.00;99.90;;;;;;5035601;28;20380;-70
2022/01/20 03:18:42;;;;;;;;;;;2.00;99.90;;;;;;5035623;28;19920;-71
2022/01/20 03:21:08;;;;;;;;;;;2.00;99.90;;;;;;5036032;28;19924;-70
2022/01/20 03:23:34;;;;;;;;;;;1.90;99.90;;;;;;5035830;28;19913;-70
2022/01/20 03:26:00;;;;;;;;;;;2.00;99.90;;;;;;5036005;28;19967;-70
2022/01/20 03:28:25;;;;;;;;;;;2.00;99.90;;;;;;5035671;28;19917;-70
2022/01/20 03:30:51;;;;;;;;;;;2.00;99.90;;;;;;5034759;28;19956;-70
2022/01/20 03:33:17;;;;;;;;;;;2.00;99.90;;;;;;5035630;28;20327;-73
2022/01/20 03:35:42;;;;;;;;;;;2.10;99.90;;;;;;5035694;28;19917;-70
2022/01/20 03:38:08;;;;;;;;;;;2.00;99.90;;;;;;5034298;28;19928;-70
2022/01/20 03:40:34;;;;;;;;;;;2.00;99.90;;;;;;5035698;28;20288;-70
2022/01/20 03:43:00;;;;;;;;;;;2.00;99.90;;;;;;5050988;28;20000;-70
2022/01/20 03:45:27;;;;;;;;;;;2.10;99.90;;;;;;5035420;28;19920;-70
2022/01/20 03:47:55;;;;;;;;;;;2.10;99.90;;;;;;5035599;28;19913;-71
2022/01/20 03:53:06;;;;;;;;;;;2.10;99.90;;;;;;5034727;28;19921;-70
2022/01/20 03:55:31;;;;;;;;;;;2.10;99.90;;;;;;5034841;28;19917;-70
2022/01/20 03:57:57;;;;;;;;;;;2.10;99.90;;;;;;5034700;28;19913;-70
2022/01/20 04:00:22;;;;;;;;;;;2.10;99.90;;;;;;5034885;28;19917;-72
2022/01/20 04:02:48;;;;;;;;;;;2.10;99.90;;;;;;5034836;28;19913;-70
2022/01/20 04:05:14;;;;;;;;;;;2.10;99.90;;;;;;5034006;28;20287;-70
2022/01/20 04:07:39;;;;;;;;;;;2.10;99.90;;;;;;5035122;28;19914;-71
2022/01/20 04:10:05;;;;;;;;;;;2.10;99.90;;;;;;5035078;28;19967;-70
2022/01/20 04:12:31;;;;;;;;;;;2.20;99.90;;;;;;5034194;28;19951;-71
2022/01/20 04:14:56;;;;;;;;;;;2.10;99.90;;;;;;5032754;28;19952;-70
2022/01/20 04:17:26;;;;;;;;;;;2.10;99.90;;;;;;5034043;28;19913;-70
2022/01/20 04:19:52;;;;;;;;;;;2.00;99.90;;;;;;5034782;28;19948;-70
2022/01/20 04:22:17;;;;;;;;;;;2.00;99.90;;;;;;5034910;28;19913;-70
2022/01/20 04:24:43;;;;;;;;;;;1.90;99.90;;;;;;5034589;28;19944;-71
2022/01/20 04:27:08;;;;;;;;;;;1.90;99.90;;;;;;5034386;28;19925;-71
2022/01/20 04:29:34;;;;;;;;;;;1.90;99.90;;;;;;5034637;28;20002;-72
2022/01/20 04:32:00;;;;;;;;;;;2.00;99.90;;;;;;5034220;28;19917;-70
2022/01/20 04:34:25;;;;;;;;;;;1.90;99.90;;;;;;5034463;28;19917;-70
2022/01/20 04:36:53;;;;;;;;;;;1.90;99.90;;;;;;5034207;28;19924;-70
2022/01/20 04:39:22;;;;;;;;;;;1.90;99.90;;;;;;5034288;28;19921;-70
2022/01/20 04:41:49;;;;;;;;;;;1.90;99.90;;;;;;5034450;28;20323;-70
2022/01/20 04:44:29;;;;;;;;;;;1.90;99.90;;;;;;5034275;28;19913;-70
2022/01/20 04:47:05;;;;;;;;;;;2.00;99.90;;;;;;5034496;28;20353;-70
2022/01/20 04:57:53;;;;;;;;;;;2.00;99.90;;;;;;5034208;28;20399;-69
2022/01/20 05:00:18;;;;;;;;;;;2.00;99.90;;;;;;5033636;28;19921;-71
2022/01/20 05:02:44;;;;;;;;;;;2.00;99.90;;;;;;5033551;28;19913;-70
2022/01/20 05:05:10;;;;;;;;;;;2.00;99.90;;;;;;5034055;28;19921;-70
2022/01/20 05:07:35;;;;;;;;;;;2.10;99.90;;;;;;5033943;28;19947;-70
2022/01/20 05:10:05;;;;;;;;;;;2.10;99.90;;;;;;5033944;28;19958;-70
2022/01/20 05:12:59;;;;;;;;;;;2.00;99.90;;;;;;5032544;28;20265;-69
2022/01/20 05:15:17;;;;;;;;;;;2.10;99.90;;;;;;5033420;28;19972;-69
2022/01/20 05:17:42;;;;;;;;;;;2.10;99.90;;;;;;5033636;28;20308;-69
2022/01/20 05:20:08;;;;;;;;;;;2.10;99.90;;;;;;5032451;28;19925;-69
2022/01/20 05:22:34;;;;;;;;;;;2.10;99.90;;;;;;5033662;28;19920;-69
2022/01/20 05:25:00;;;;;;;;;;;2.00;99.90;;;;;;5033684;28;19917;-73
2022/01/20 05:27:25;;;;;;;;;;;2.00;99.90;;;;;;5033556;28;19920;-68
2022/01/20 05:29:51;;;;;;;;;;;2.00;99.90;;;;;;5033382;28;20375;-68
2022/01/20 05:32:17;;;;;;;;;;;1.90;99.90;;;;;;5033350;28;19924;-70
2022/01/20 05:34:42;;;;;;;;;;;2.00;99.90;;;;;;5033578;28;19919;-69
2022/01/20 05:37:08;;;;;;;;;;;1.90;99.90;;;;;;5033551;28;19917;-69
2022/01/20 05:39:33;;;;;;;;;;;1.90;99.90;;;;;;5033440;28;19921;-69
2022/01/20 05:41:59;;;;;;;;;;;1.90;99.90;;;;;;5033395;28;19913;-69
2022/01/20 05:44:25;;;;;;;;;;;1.90;99.90;;;;;;5031751;28;19920;-70
2022/01/20 05:46:52;;;;;;;;;;;1.90;99.90;;;;;;5033053;28;19947;-69
2022/01/20 05:49:21;;;;;;;;;;;1.90;99.90;;;;;;5033328;28;19917;-69
2022/01/20 05:51:52;;;;;;;;;;;1.90;99.90;;;;;;5033406;28;20357;-69
2022/01/20 05:54:18;;;;;;;;;;;2.00;99.90;;;;;;5031548;28;20368;-72
2022/01/20 05:56:44;;;;;;;;;;;2.10;99.90;;;;;;5033075;28;19919;-69
2022/01/20 05:59:11;;;;;;;;;;;2.00;99.90;;;;;;5031757;28;19924;-73
2022/01/20 06:01:38;;;;;;;;;;;2.00;99.90;;;;;;5033174;28;19919;-69
2022/01/20 06:04:05;;;;;;;;;;;2.00;99.90;;;;;;5033322;28;19917;-69
2022/01/20 06:06:31;;;;;;;;;;;2.00;99.90;;;;;;5031896;28;19921;-69
2022/01/20 06:08:57;;;;;;;;;;;2.00;99.90;;;;;;5033230;28;20335;-69
2022/01/20 06:11:23;;;;;;;;;;;2.00;99.90;;;;;;5033118;28;19913;-69
2022/01/20 06:13:48;;;;;;;;;;;2.00;99.90;;;;;;5033163;28;19917;-69
2022/01/20 06:16:14;;;;;;;;;;;2.00;99.90;;;;;;5033183;28;19959;-69
2022/01/20 06:18:40;;;;;;;;;;;2.00;99.90;;;;;;5032841;28;19917;-68
2022/01/20 06:21:06;;;;;;;;;;;2.00;99.90;;;;;;5033012;28;19924;-69
2022/01/20 06:23:32;;;;;;;;;;;2.00;99.90;;;;;;5023765;28;19913;-69
2022/01/20 06:26:02;;;;;;;;;;;2.10;99.90;;;;;;5031610;28;19920;-69
2022/01/20 06:28:28;;;;;;;;;;;2.10;99.90;;;;;;5032894;28;19953;-69
2022/01/20 06:30:54;;;;;;;;;;;2.10;99.90;;;;;;5028237;28;20018;-71
2022/01/20 06:33:19;;;;;;;;;;;2.10;99.90;;;;;;5028810;28;19925;-69
2022/01/20 06:35:45;;;;;;;;;;;2.10;99.90;;;;;;5030970;28;19940;-69
2022/01/20 06:38:11;;;;;;;;;;;2.10;99.90;;;;;;5031195;28;19915;-73
2022/01/20 06:40:37;;;;;;;;;;;2.10;99.90;;;;;;5032749;28;20369;-69
2022/01/20 06:43:03;;;;;;;;;;;2.10;99.90;;;;;;5031331;28;19917;-70
2022/01/20 06:45:29;;;;;;;;;;;2.10;99.90;;;;;;5032756;28;19913;-70
2022/01/20 06:47:54;;;;;;;;;;;2.20;99.90;;;;;;5031228;28;19944;-70
2022/01/20 06:50:20;;;;;;;;;;;2.20;99.90;;;;;;5024982;28;19925;-69
2022/01/20 06:52:46;;;;;;;;;;;2.20;99.90;;;;;;5028888;28;19917;-70
2022/01/20 06:55:12;;;;;;;;;;;2.20;99.90;;;;;;5029557;28;19914;-70
2022/01/20 06:57:39;;;;;;;;;;;2.20;99.90;;;;;;5027514;28;19917;-70
2022/01/20 07:00:06;;;;;;;;;;;2.20;99.90;;;;;;5028918;28;19922;-69
2022/01/20 07:02:32;;;;;;;;;;;2.20;99.90;;;;;;5031363;28;19972;-71
2022/01/20 07:04:57;;;;;;;;;;;2.20;99.90;;;;;;5047925;28;20365;-70
2022/01/20 07:07:23;;;;;;;;;;;2.20;99.90;;;;;;5034844;28;19913;-71
2022/01/20 07:09:49;;;;;;;;;;;2.20;99.90;;;;;;5034849;28;19971;-68
2022/01/20 07:12:14;;;;;;;;;;;2.10;99.90;;;;;;5035710;28;19971;-68
2022/01/20 07:14:40;;;;;;;;;;;2.10;99.90;;;;;;5035332;28;19921;-68
2022/01/20 07:17:06;;;;;;;;;;;2.40;99.90;;;;;;5034107;28;19928;-68
2022/01/20 07:19:31;;;;;;;;;;;2.50;99.90;;;;;;5034686;28;19928;-68
2022/01/20 07:21:57;;;;;;;;;;;2.30;99.90;;;;;;5033824;28;19913;-69
2022/01/20 07:24:23;;;;;;;;;;;2.30;99.90;;;;;;5034269;28;19920;-68
2022/01/20 07:26:49;;;;;;;;;;;2.30;99.90;;;;;;5034651;28;20254;-69
2022/01/20 07:29:15;;;;;;;;;;;2.30;99.90;;;;;;5035854;28;19940;-69
2022/01/20 07:31:41;;;;;;;;;;;2.20;99.90;;;;;;5035893;28;20003;-68
2022/01/20 07:34:07;;;;;;;;;;;2.40;99.90;;;;;;5035789;28;19917;-69
2022/01/20 07:36:32;;;;;;;;;;;2.40;99.90;;;;;;5035629;28;20035;-68
2022/01/20 07:38:58;;;;;;;;;;;2.30;99.90;;;;;;5035623;28;19963;-68
2022/01/20 07:41:23;;;;;;;;;;;2.40;99.90;;;;;;5034818;28;19928;-69
2022/01/20 07:43:49;;;;;;;;;;;2.40;99.90;;;;;;5035650;28;19913;-69
2022/01/20 07:46:14;;;;;;;;;;;2.40;99.90;;;;;;5035251;28;20276;-69
2022/01/20 07:48:40;;;;;;;;;;;2.30;99.90;;;;;;5035280;28;20435;-69
2022/01/20 07:51:06;;;;;;;;;;;2.50;99.90;;;;;;5035157;28;19914;-69
2022/01/20 07:53:32;;;;;;;;;;;2.30;99.90;;;;;;5033940;28;19917;-68
2022/01/20 07:55:58;;;;;;;;;;;2.40;99.90;;;;;;5035477;28;20004;-70
2022/01/20 07:58:24;;;;;;;;;;;2.50;99.90;;;;;;5035262;28;20016;-70
2022/01/20 08:00:50;;;;;;;;;;;2.50;99.90;;;;;;5035504;28;19913;-69
2022/01/20 08:03:15;;;;;;;;;;;2.50;99.90;;;;;;5034381;28;19920;-69
2022/01/20 08:05:41;;;;;;;;;;;2.50;99.90;;;;;;5032991;28;20331;-69
2022/01/20 08:08:06;;;;;;;;;;;2.50;99.90;;;;;;5034767;28;19955;-69
2022/01/20 08:10:34;;;;;;;;;;;2.50;99.90;;;;;;5035090;28;19917;-69
2022/01/20 08:12:59;;;;;;;;;;;2.50;99.90;;;;;;5034790;28;20008;-69
2022/01/20 08:15:25;;;;;;;;;;;2.50;99.90;;;;;;5035160;28;20018;-69
2022/01/20 08:17:51;;;;;;;;;;;2.50;99.90;;;;;;5032501;28;20241;-69
2022/01/20 08:20:16;;;;;;;;;;;2.50;99.90;;;;;;5034384;28;19921;-70
2022/01/20 08:22:42;;;;;;;;;;;2.50;99.90;;;;;;5034462;28;20358;-69
2022/01/20 08:25:08;;;;;;;;;;;2.50;99.90;;;;;;5034855;28;19917;-69
2022/01/20 08:27:33;;;;;;;;;;;2.50;99.90;;;;;;5033942;28;20433;-69
2022/01/20 08:29:59;;;;;;;;;;;2.50;99.90;;;;;;5034820;28;19956;-69
2022/01/20 08:32:25;;;;;;;;;;;2.60;99.90;;;;;;5033525;28;19963;-69
2022/01/20 08:34:50;;;;;;;;;;;2.60;99.90;;;;;;5034590;28;19913;-69
2022/01/20 08:37:16;;;;;;;;;;;2.60;99.90;;;;;;5029920;28;19944;-71
2022/01/20 08:39:43;;;;;;;;;;;2.60;99.90;;;;;;5031884;28;20387;-70
2022/01/20 08:42:09;;;;;;;;;;;2.60;99.90;;;;;;5033635;28;19921;-70
2022/01/20 08:44:34;;;;;;;;;;;2.70;99.90;;;;;;5034635;28;19967;-69
2022/01/20 08:47:02;;;;;;;;;;;2.60;99.90;;;;;;5034502;28;19913;-69
2022/01/20 08:49:28;;;;;;;;;;;2.60;99.90;;;;;;5034424;28;19917;-69
2022/01/20 08:51:54;;;;;;;;;;;2.70;99.90;;;;;;5033755;28;19920;-69
2022/01/20 08:54:20;;;;;;;;;;;2.70;99.90;;;;;;5034315;28;19917;-69
2022/01/20 08:56:46;;;;;;;;;;;2.70;99.90;;;;;;5034241;28;20407;-70
2022/01/20 08:59:12;;;;;;;;;;;2.70;99.90;;;;;;5034104;28;20365;-69
2022/01/20 09:01:40;;;;;;;;;;;2.70;99.90;;;;;;5034254;28;19913;-69
2022/01/20 09:04:06;;;;;;;;;;;2.70;99.90;;;;;;5032843;28;19913;-69
2022/01/20 09:06:32;;;;;;;;;;;2.80;99.90;;;;;;5033838;28;20008;-69
2022/01/20 09:08:57;;;;;;;;;;;2.80;99.90;;;;;;5034169;28;20024;-70
2022/01/20 09:11:29;;;;;;;;;;;2.80;99.90;;;;;;5032781;28;19913;-70
2022/01/20 09:16:40;;;;;;;;;;;2.80;99.90;;;;;;5034018;28;19924;-70
2022/01/20 09:19:05;;;;;;;;;;;2.80;99.90;;;;;;5032652;28;19921;-69
2022/01/20 09:21:31;;;;;;;;;;;2.90;99.90;;;;;;5033645;28;19964;-69
2022/01/20 09:23:57;;;;;;;;;;;2.80;99.90;;;;;;5033644;28;19932;-69
2022/01/20 09:26:23;;;;;;;;;;;2.90;99.90;;;;;;5032540;28;19917;-69
2022/01/20 09:28:48;;;;;;;;;;;2.80;99.90;;;;;;5033016;28;19913;-69
2022/01/20 09:31:14;;;;;;;;;;;2.80;99.90;;;;;;5033845;28;20332;-69
2022/01/20 09:33:40;;;;;;;;;;;2.80;99.90;;;;;;5033695;28;19939;-69
2022/01/20 09:36:10;;;;;;;;;;;2.80;99.90;;;;;;5033647;28;19917;-70
2022/01/20 09:38:36;;;;;;;;;;;2.80;99.90;;;;;;5033622;28;19967;-69
2022/01/20 09:41:03;;;;;;;;;;;2.80;99.90;;;;;;5033477;28;20395;-69
2022/01/20 09:43:28;;;;;;;;;;;2.90;99.90;;;;;;5033498;28;19913;-70
2022/01/20 09:45:57;;;;;;;;;;;2.90;99.90;;;;;;5033531;28;19940;-70
2022/01/20 09:48:24;;;;;;;;;;;2.80;99.90;;;;;;5033514;28;19920;-69
2022/01/20 09:50:50;;;;;;;;;;;2.90;99.90;;;;;;5033518;28;19982;-70
2022/01/20 09:53:16;;;;;;;;;;;2.90;99.90;;;;;;5033470;28;20284;-69
2022/01/20 09:55:42;;;;;;;;;;;2.90;99.90;;;;;;5033548;28;20015;-70
2022/01/20 09:58:08;;;;;;;;;;;3.00;99.90;;;;;;5033532;28;19940;-70
2022/01/20 10:00:34;;;;;;;;;;;2.90;99.90;;;;;;5033122;28;19975;-70
2022/01/20 10:03:08;;;;;;;;;;;2.90;99.90;;;;;;5031888;28;19913;-70
2022/01/20 10:05:38;;;;;;;;;;;3.00;99.90;;;;;;5033369;28;20004;-70
2022/01/20 10:08:09;;;;;;;;;;;3.00;99.90;;;;;;5033412;28;19913;-70
2022/01/20 10:10:39;;;;;;;;;;;2.90;99.90;;;;;;5032009;28;20356;-70
2022/01/20 10:13:06;;;;;;;;;;;2.90;99.90;;;;;;5033264;28;19921;-71
2022/01/20 10:15:31;;;;;;;;;;;2.90;99.90;;;;;;5032906;28;19920;-71
2022/01/20 10:18:06;;;;;;;;;;;2.90;99.90;;;;;;5031886;28;19999;-70
2022/01/20 10:20:32;;;;;;;;;;;2.90;99.90;;;;;;5033256;28;19925;-71
2022/01/20 10:22:58;;;;;;;;;;;2.90;99.90;;;;;;5033201;28;19920;-71
2022/01/20 10:25:24;;;;;;;;;;;2.90;99.90;;;;;;5033143;28;19913;-70
2022/01/20 10:27:51;;;;;;;;;;;3.00;99.90;;;;;;5032992;28;19913;-70
2022/01/20 10:30:17;;;;;;;;;;;3.00;99.90;;;;;;5031910;28;19960;-71
2022/01/20 10:32:43;;;;;;;;;;;3.10;99.90;;;;;;5033163;28;20014;-71
2022/01/20 10:35:09;;;;;;;;;;;3.20;99.90;;;;;;5030181;28;19913;-71
2022/01/20 10:37:35;;;;;;;;;;;3.20;99.90;;;;;;5029786;28;19913;-71
2022/01/20 10:40:11;;;;;;;;;;;3.30;99.90;;;;;;5031515;28;19932;-70
2022/01/20 10:42:38;;;;;;;;;;;3.30;99.90;;;;;;5035640;28;19921;-70
2022/01/20 10:45:04;;;;;;;;;;;3.30;99.90;;;;;;5035541;28;20056;-70
2022/01/20 10:47:32;;;;;;;;;;;3.40;99.90;;;;;;5035732;28;19956;-70
2022/01/20 10:50:10;;;;;;;;;;;3.20;99.90;;;;;;5036871;28;19919;-70
2022/01/20 10:52:36;;;;;;;;;;;3.30;99.90;;;;;;5036713;28;19913;-70
2022/01/20 10:55:02;;;;;;;;;;;3.30;99.90;;;;;;5036569;28;19967;-70
2022/01/20 10:57:30;;;;;;;;;;;3.20;99.90;;;;;;5035122;28;20005;-70
2022/01/20 10:59:59;;;;;;;;;;;3.30;99.90;;;;;;5036421;28;19925;-70
2022/01/20 11:02:27;;;;;;;;;;;3.30;99.90;;;;;;5036526;28;20000;-70
2022/01/20 11:04:53;;;;;;;;;;;3.40;99.90;;;;;;5036386;28;20334;-71
2022/01/20 11:07:19;;;;;;;;;;;3.50;99.90;;;;;;5035005;28;19921;-71
2022/01/20 11:09:50;;;;;;;;;;;3.50;99.90;;;;;;5036341;28;20389;-71
2022/01/20 11:12:15;;;;;;;;;;;3.40;99.90;;;;;;5036356;28;20258;-71
2022/01/20 11:14:43;;;;;;;;;;;3.50;99.90;;;;;;5036463;28;19970;-71
2022/01/20 11:17:16;;;;;;;;;;;3.40;99.90;;;;;;5035356;28;20432;-71
2022/01/20 11:19:42;;;;;;;;;;;3.50;99.90;;;;;;5036052;28;19921;-71
2022/01/20 11:22:09;;;;;;;;;;;3.60;99.90;;;;;;5035122;28;19917;-71
2022/01/20 11:24:35;;;;;;;;;;;3.50;99.90;;;;;;5036218;28;19917;-71
2022/01/20 11:27:02;;;;;;;;;;;3.40;99.90;;;;;;5035881;28;19917;-71
2022/01/20 11:30:01;;;;;;;;;;;3.40;99.90;;;;;;5036034;28;19920;-70
2022/01/20 11:32:27;;;;;;;;;;;3.30;99.90;;;;;;5023151;28;19923;-70
2022/01/20 11:35:01;;;;;;;;;;;3.30;99.90;;;;;;5035884;28;20276;-71
2022/01/20 11:37:28;;;;;;;;;;;3.30;99.90;;;;;;5034506;28;19996;-71
2022/01/20 11:39:54;;;;;;;;;;;3.30;99.90;;;;;;5034780;28;19921;-70
2022/01/20 11:42:21;;;;;;;;;;;3.30;99.90;;;;;;5035696;28;20008;-70
2022/01/20 11:44:46;;;;;;;;;;;3.30;99.90;;;;;;5035611;28;19921;-70
2022/01/20 11:47:12;;;;;;;;;;;3.20;99.90;;;;;;5035015;28;19971;-70
2022/01/20 11:49:39;;;;;;;;;;;3.20;99.90;;;;;;5035682;28;19920;-70
2022/01/20 11:52:05;;;;;;;;;;;3.20;99.90;;;;;;5033628;28;19914;-70
2022/01/20 11:54:32;;;;;;;;;;;3.10;99.90;;;;;;5035501;28;19996;-70
2022/01/20 11:57:05;;;;;;;;;;;3.10;99.90;;;;;;5034119;28;19921;-70
2022/01/20 11:59:37;;;;;;;;;;;3.20;99.90;;;;;;5035272;28;19932;-70
2022/01/20 12:02:03;;;;;;;;;;;3.10;99.90;;;;;;5035774;28;19953;-70
2022/01/20 12:04:33;;;;;;;;;;;3.00;99.90;;;;;;5035184;28;19920;-70
2022/01/20 12:06:59;;;;;;;;;;;3.00;99.90;;;;;;5034958;28;20361;-70
2022/01/20 12:09:29;;;;;;;;;;;3.10;99.90;;;;;;5035089;28;19958;-70
2022/01/20 12:11:55;;;;;;;;;;;3.20;99.90;;;;;;5033841;28;20052;-71
2022/01/20 12:14:35;;;;;;;;;;;3.10;99.90;;;;;;5035244;28;19959;-70
2022/01/20 12:17:02;;;;;;;;;;;3.20;99.90;;;;;;5035168;28;20452;-70
2022/01/20 12:19:28;;;;;;;;;;;3.30;99.90;;;;;;5035003;28;20070;-70
2022/01/20 12:21:53;;;;;;;;;;;3.30;99.90;;;;;;5034896;28;19991;-70
2022/01/20 12:24:20;;;;;;;;;;;3.40;99.90;;;;;;5034932;28;19920;-70
2022/01/20 12:26:46;;;;;;;;;;;3.50;99.90;;;;;;5034950;28;19913;-71
2022/01/20 12:29:12;;;;;;;;;;;3.50;99.90;;;;;;5033911;28;19943;-70
2022/01/20 12:31:45;;;;;;;;;;;3.50;99.90;;;;;;5034833;28;19913;-70
2022/01/20 12:34:11;;;;;;;;;;;3.50;99.90;;;;;;5034697;28;19913;-71
2022/01/20 12:36:39;;;;;;;;;;;3.50;99.90;;;;;;5033244;28;19924;-70
2022/01/20 12:39:05;;;;;;;;;;;3.60;99.90;;;;;;5034282;28;19917;-70
2022/01/20 12:41:32;;;;;;;;;;;3.50;99.90;;;;;;5033238;28;19917;-70
2022/01/20 12:44:05;;;;;;;;;;;3.60;99.90;;;;;;5034533;28;19923;-70
2022/01/20 12:46:33;;;;;;;;;;;3.50;99.90;;;;;;5034480;28;19967;-70
2022/01/20 12:49:04;;;;;;;;;;;3.60;99.90;;;;;;5034475;28;20250;-70
2022/01/20 12:51:39;;;;;;;;;;;3.60;99.90;;;;;;5034399;28;19952;-70
2022/01/20 12:54:11;;;;;;;;;;;3.60;99.90;;;;;;5034421;28;19913;-70
2022/01/20 12:56:38;;;;;;;;;;;3.60;99.90;;;;;;5033262;28;19921;-70
2022/01/20 12:59:05;;;;;;;;;;;3.60;99.90;;;;;;5034136;28;19967;-70
2022/01/20 13:01:30;;;;;;;;;;;;;;;;;;5033932;28;19960;-71
2022/01/20 13:03:58;;;;;;;;;;;3.70;99.90;;;;;;5033870;28;19999;-70
2022/01/20 13:06:26;;;;;;;;;;;3.70;99.90;;;;;;5034086;28;20380;-70
2022/01/20 13:09:05;;;;;;;;;;;3.70;99.90;;;;;;5034378;28;19955;-70
2022/01/20 13:11:41;;;;;;;;;;;3.70;99.90;;;;;;5034066;28;19994;-70
2022/01/20 13:14:07;;;;;;;;;;;3.60;99.90;;;;;;5033613;28;19913;-70
2022/01/20 13:16:33;;;;;;;;;;;3.70;99.90;;;;;;5032851;28;19921;-70
2022/01/20 13:19:00;;;;;;;;;;;3.80;99.90;;;;;;5032623;28;19928;-70
2022/01/20 13:21:37;;;;;;;;;;;3.80;99.90;;;;;;5033950;28;20310;-72
2022/01/20 13:24:04;;;;;;;;;;;3.90;99.90;;;;;;5033957;28;19970;-70
2022/01/20 13:26:30;;;;;;;;;;;4.00;99.90;;;;;;5033740;28;19914;-70
2022/01/20 13:28:58;;;;;;;;;;;4.10;99.90;;;;;;5033634;28;19914;-71
2022/01/20 13:31:24;;;;;;;;;;;4.10;99.90;;;;;;5033746;28;19917;-70
2022/01/20 13:33:50;;;;;;;;;;;4.10;99.90;;;;;;5032593;28;19913;-71
2022/01/20 13:36:16;;;;;;;;;;;4.00;99.90;;;;;;5033648;28;19920;-70
2022/01/20 13:38:48;;;;;;;;;;;4.00;99.90;;;;;;5032287;28;20387;-70
2022/01/20 13:41:18;;;;;;;;;;;3.90;99.90;;;;;;5033551;28;20360;-70
2022/01/20 13:46:29;;;;;;;;;;;3.80;99.90;;;;;;5033392;28;20347;-70
2022/01/20 13:49:05;;;;;;;;;;;3.60;99.90;;;;;;5033407;28;19913;-70
2022/01/20 13:51:30;;;;;;;;;;;3.30;99.90;;;;;;5033888;28;20000;-71
2022/01/20 13:53:56;;;;;;;;;;;3.30;99.90;;;;;;5033428;28;20031;-70
2022/01/20 13:56:22;;;;;;;;;;;3.30;99.90;;;;;;5033359;28;19974;-70
2022/01/20 13:58:48;;;;;;;;;;;3.20;99.90;;;;;;5033298;28;19925;-70
2022/01/20 14:01:13;;;;;;;;;;;3.20;99.90;;;;;;5033101;28;19921;-71
2022/01/20 14:03:40;;;;;;;;;;;3.20;99.90;;;;;;5033107;28;19913;-71
2022/01/20 14:06:06;;;;;;;;;;;3.20;99.90;;;;;;5033309;28;19917;-71
2022/01/20 14:08:36;;;;;;;;;;;3.20;99.90;;;;;;5033220;28;20087;-70
2022/01/20 14:11:02;;;;;;;;;;;3.20;99.90;;;;;;5033417;28;19920;-72
2022/01/20 14:13:28;;;;;;;;;;;3.20;99.90;;;;;;5033323;28;19918;-71
2022/01/20 14:15:55;;;;;;;;;;;3.20;99.90;;;;;;5035075;28;19913;-71
2022/01/20 14:18:23;;;;;;;;;;;3.20;99.90;;;;;;5037545;28;20000;-71
2022/01/20 14:20:49;;;;;;;;;;;3.10;99.90;;;;;;5037164;28;19921;-70
2022/01/20 14:23:15;;;;;;;;;;;3.10;99.90;;;;;;5037107;28;19920;-71
2022/01/20 14:25:46;;;;;;;;;;;3.10;99.90;;;;;;5037235;28;20586;-73
2022/01/20 14:28:12;;;;;;;;;;;3.00;99.90;;;;;;5036099;28;19920;-71
2022/01/20 14:30:38;;;;;;;;;;;3.00;99.90;;;;;;5037190;28;19913;-73
2022/01/20 14:33:04;;;;;;;;;;;2.90;99.90;;;;;;5037312;28;19913;-70
2022/01/20 14:35:31;;;;;;;;;;;2.90;99.90;;;;;;5036551;28;20000;-71
2022/01/20 14:37:58;;;;;;;;;;;3.00;99.90;;;;;;5037053;28;19952;-71
2022/01/20 14:40:24;;;;;;;;;;;2.90;99.90;;;;;;5032811;28;19991;-71
2022/01/20 14:42:50;;;;;;;;;;;2.90;99.90;;;;;;5033569;28;19921;-71
2022/01/20 14:45:18;;;;;;;;;;;3.00;99.90;;;;;;5033512;28;19925;-71
2022/01/20 14:47:52;;;;;;;;;;;3.00;99.90;;;;;;5035858;28;19917;-71
2022/01/20 14:50:18;;;;;;;;;;;3.00;99.90;;;;;;5034599;28;19913;-71
2022/01/20 14:52:44;;;;;;;;;;;3.00;99.90;;;;;;5034038;28;19959;-71
2022/01/20 14:55:09;;;;;;;;;;;3.00;99.90;;;;;;5035812;28;20004;-71
2022/01/20 14:57:35;;;;;;;;;;;3.00;99.90;;;;;;5036681;28;19913;-71
2022/01/20 15:00:00;;;;;;;;;;;3.00;99.90;;;;;;5036581;28;19925;-71
2022/01/20 15:02:26;;;;;;;;;;;3.00;99.90;;;;;;5036508;28;20396;-71
2022/01/20 15:04:52;;;;;;;;;;;3.00;99.90;;;;;;5036344;28;20369;-71
2022/01/20 15:07:19;;;;;;;;;;;3.00;99.90;;;;;;5036527;28;20391;-72
2022/01/20 15:09:44;;;;;;;;;;;3.10;99.90;;;;;;5036466;28;19940;-71
2022/01/20 15:12:10;;;;;;;;;;;3.10;99.90;;;;;;5035187;28;19917;-71
2022/01/20 15:14:36;;;;;;;;;;;3.00;99.90;;;;;;5035069;28;19957;-71
2022/01/20 15:17:02;;;;;;;;;;;3.00;99.90;;;;;;5036368;28;19917;-71
2022/01/20 15:19:28;;;;;;;;;;;3.00;99.90;;;;;;5036119;28;19921;-71
2022/01/20 15:21:53;;;;;;;;;;;3.00;99.90;;;;;;5036307;28;19913;-74
2022/01/20 15:24:19;;;;;;;;;;;3.00;99.90;;;;;;5051435;28;19913;-70
2022/01/20 15:26:45;;;;;;;;;;;3.10;99.90;;;;;;5034462;28;19913;-70
2022/01/20 15:29:11;;;;;;;;;;;3.10;99.90;;;;;;5036007;28;20293;-70
2022/01/20 15:31:36;;;;;;;;;;;3.10;99.90;;;;;;5035426;28;19924;-70
2022/01/20 15:34:06;;;;;;;;;;;3.10;99.90;;;;;;5032478;28;20057;-72